Time;durP1;ratioP1;P1;durP2;ratioP2;P2;SDS_P1;SDS_P2;PMS_P1;PMS_P2;Temp;Humidity;BMP_temperature;BMP_pressure;BME280_temperature;BME280_humidity;BME280_pressure;Samples;Min_cycle;Max_cycle;Signal;HPM_P1;HPM_P2
2021/09/17 00:01:16;;;;;;;31.75;18.77;;;;;;;8.92;100.00;100574.94;1687329;83;21181;-72
2021/09/17 00:03:42;;;;;;;38.10;21.12;;;;;;;8.76;100.00;100570.56;1711967;81;21063;-74
2021/09/17 00:06:09;;;;;;;37.90;22.48;;;;;;;8.61;100.00;100575.28;1635986;84;21179;-75
2021/09/17 00:08:36;;;;;;;40.05;23.65;;;;;;;8.72;100.00;100580.16;1689066;83;21130;-74
2021/09/17 00:11:06;;;;;;;43.87;24.43;;;;;;;8.77;100.00;100576.57;1692040;84;21062;-73
2021/09/17 00:13:35;;;;;;;43.30;24.10;;;;;;;8.62;100.00;100576.41;1658930;85;21038;-76
2021/09/17 00:16:04;;;;;;;44.13;24.72;;;;;;;8.55;100.00;100572.02;1690621;84;21114;-72
2021/09/17 00:18:32;;;;;;;40.50;23.12;;;;;;;8.66;100.00;100573.00;1694549;84;21141;-72
2021/09/17 00:20:58;;;;;;;41.75;22.80;;;;;;;8.74;100.00;100573.00;1659988;84;21483;-72
2021/09/17 00:23:27;;;;;;;47.33;23.92;;;;;;;8.69;100.00;100570.08;1689337;84;20932;-73
2021/09/17 00:25:55;;;;;;;42.55;22.37;;;;;;;8.71;100.00;100575.45;1694270;84;21090;-75
2021/09/17 00:28:21;;;;;;;38.30;22.22;;;;;;;8.66;100.00;100573.81;1694057;84;21088;-74
2021/09/17 00:30:48;;;;;;;41.45;21.57;;;;;;;8.61;100.00;100568.79;1662377;84;21160;-73
2021/09/17 00:33:15;;;;;;;37.13;19.95;;;;;;;8.39;100.00;100569.73;1691045;84;21409;-74
2021/09/17 00:35:43;;;;;;;37.90;20.20;;;;;;;8.28;100.00;100565.63;1667656;84;21537;-74
2021/09/17 00:38:09;;;;;;;41.25;22.15;;;;;;;8.19;100.00;100565.80;1688823;83;21078;-75
2021/09/17 00:40:36;;;;;;;43.42;23.60;;;;;;;8.17;100.00;100567.23;1685034;83;21079;-75
2021/09/17 00:43:05;;;;;;;49.30;24.52;;;;;;;8.23;100.00;100571.80;1691550;84;21017;-75
2021/09/17 00:45:33;;;;;;;48.15;26.80;;;;;;;8.25;100.00;100574.23;1658507;85;20963;-75
2021/09/17 00:48:01;;;;;;;44.13;24.00;;;;;;;8.23;100.00;100573.10;1691817;84;21069;-74
2021/09/17 00:50:38;;;;;;;44.67;23.57;;;;;;;8.19;100.00;100573.59;1692054;84;21148;-74
2021/09/17 00:53:06;;;;;;;41.35;23.87;;;;;;;8.17;100.00;100567.73;1660222;85;21049;-74
2021/09/17 00:55:33;;;;;;;40.33;21.93;;;;;;;8.13;100.00;100572.91;1687229;83;21668;-74
2021/09/17 00:58:00;;;;;;;46.15;23.92;;;;;;;8.03;100.00;100562.20;1690925;84;21031;-74
2021/09/17 01:00:27;;;;;;;52.75;27.13;;;;;;;7.99;100.00;100563.95;1693754;84;20958;-73
2021/09/17 01:02:53;;;;;;;55.20;28.42;;;;;;;8.01;100.00;100566.72;1694478;84;21088;-73
2021/09/17 01:05:20;;;;;;;56.58;31.02;;;;;;;8.25;100.00;100566.44;1647475;85;21140;-74
2021/09/17 01:07:48;;;;;;;60.98;33.05;;;;;;;8.33;100.00;100566.44;1641048;87;21230;-73
2021/09/17 01:10:16;;;;;;;66.00;32.23;;;;;;;8.34;100.00;100562.89;1640117;86;21018;-73
2021/09/17 01:12:43;;;;;;;59.20;30.80;;;;;;;8.40;100.00;100557.56;1640738;86;21135;-72
2021/09/17 01:15:12;;;;;;;62.15;29.75;;;;;;;8.56;100.00;100555.45;1652490;85;21142;-73
2021/09/17 01:17:43;;;;;;;61.20;31.07;;;;;;;8.61;100.00;100555.80;1659981;84;21114;-73
2021/09/17 01:20:14;;;;;;;57.25;28.32;;;;;;;8.53;100.00;100557.91;1665487;84;21305;-74
2021/09/17 01:22:40;;;;;;;58.33;28.35;;;;;;;8.41;100.00;100552.68;1633106;86;22326;-74
2021/09/17 01:25:11;;;;;;;55.83;30.00;;;;;;;8.33;100.00;100550.86;1636652;86;20954;-74
2021/09/17 01:27:37;;;;;;;59.77;30.15;;;;;;;8.33;100.00;100555.24;1672741;84;21604;-74
2021/09/17 01:30:06;;;;;;;57.98;28.98;;;;;;;8.37;100.00;100547.03;1676987;84;21079;-74
2021/09/17 01:32:32;;;;;;;55.35;29.15;;;;;;;8.34;100.00;100549.09;1674054;84;21192;-71
2021/09/17 01:34:59;;;;;;;54.93;27.58;;;;;;;8.36;100.00;100553.14;1678520;85;21098;-73
2021/09/17 01:37:26;;;;;;;49.93;24.77;;;;;;;8.29;100.00;100550.86;1675024;85;21094;-74
2021/09/17 01:39:53;;;;;;;52.93;26.50;;;;;;;8.27;100.00;100551.03;1679136;85;21043;-73
2021/09/17 01:42:19;;;;;;;51.73;25.17;;;;;;;8.18;100.00;100544.67;1668960;85;21042;-74
2021/09/17 01:44:46;;;;;;;47.25;24.85;;;;;;;8.22;100.00;100548.57;1674309;85;21082;-74
2021/09/17 01:47:13;;;;;;;44.85;24.40;;;;;;;8.37;100.00;100557.42;1675857;85;20963;-73
2021/09/17 01:49:39;;;;;;;44.85;22.73;;;;;;;8.19;100.00;100554.92;1675621;85;21090;-75
2021/09/17 01:52:07;;;;;;;50.83;25.48;;;;;;;8.10;100.00;100552.45;1678778;85;22455;-73
2021/09/17 01:54:36;;;;;;;49.18;24.52;;;;;;;8.10;100.00;100549.37;1662671;84;21108;-75
2021/09/17 01:57:05;;;;;;;54.48;27.70;;;;;;;8.20;100.00;100550.53;1636657;86;21002;-77
2021/09/17 01:59:32;;;;;;;36.55;21.10;;;;;;;8.23;100.00;100552.33;1661736;84;21503;-74
2021/09/17 02:01:59;;;;;;;43.70;23.30;;;;;;;8.05;100.00;100552.94;1665699;84;20973;-75
2021/09/17 02:04:27;;;;;;;54.10;27.10;;;;;;;8.01;100.00;100556.34;1664444;84;20954;-75
2021/09/17 02:06:53;;;;;;;46.20;25.15;;;;;;;8.00;100.00;100550.02;1692322;83;21125;-74
2021/09/17 02:09:21;;;;;;;45.83;24.50;;;;;;;8.07;100.00;100547.58;1695854;82;22361;-76
2021/09/17 02:11:50;;;;;;;47.88;24.55;;;;;;;7.96;100.00;100544.81;1697986;84;21045;-75
2021/09/17 02:14:18;;;;;;;49.05;24.47;;;;;;;7.84;100.00;100545.60;1695818;83;21006;-74
2021/09/17 02:16:46;;;;;;;46.40;26.30;;;;;;;7.76;100.00;100548.14;1694399;82;21017;-75
2021/09/17 02:19:14;;;;;;;48.83;25.23;;;;;;;7.70;100.00;100552.69;1697482;84;21077;-74
2021/09/17 02:21:40;;;;;;;59.18;29.10;;;;;;;7.66;100.00;100552.67;1696049;84;21164;-74
2021/09/17 02:24:07;;;;;;;50.52;27.40;;;;;;;7.55;100.00;100548.08;1697122;84;21469;-75
2021/09/17 02:26:34;;;;;;;47.60;23.32;;;;;;;7.74;100.00;100550.91;1694015;84;21512;-76
2021/09/17 02:29:01;;;;;;;44.63;23.98;;;;;;;8.04;100.00;100540.45;1695842;83;21108;-76
2021/09/17 02:31:28;;;;;;;55.85;26.85;;;;;;;8.18;100.00;100538.19;1697040;83;21077;-76
2021/09/17 02:33:55;;;;;;;44.13;25.23;;;;;;;7.79;100.00;100542.64;1694209;84;21116;-76
2021/09/17 02:36:21;;;;;;;47.05;23.52;;;;;;;7.69;100.00;100548.44;1692640;83;20951;-75
2021/09/17 02:38:48;;;;;;;39.95;17.95;;;;;;;7.61;100.00;100546.63;1694168;83;21055;-76
2021/09/17 02:41:14;;;;;;;34.13;17.27;;;;;;;7.74;100.00;100543.61;1698028;82;22485;-75
2021/09/17 02:43:44;;;;;;;33.83;16.55;;;;;;;7.50;100.00;100538.67;1696128;82;21609;-75
2021/09/17 02:46:10;;;;;;;30.85;16.50;;;;;;;7.27;100.00;100544.05;1703326;84;22238;-75
2021/09/17 02:48:38;;;;;;;31.75;17.95;;;;;;;7.20;100.00;100540.47;1693392;84;21042;-74
2021/09/17 02:51:05;;;;;;;33.08;15.48;;;;;;;7.14;100.00;100544.97;1690206;84;21602;-75
2021/09/17 02:53:32;;;;;;;31.17;17.57;;;;;;;7.03;100.00;100548.13;1677356;84;21026;-75
2021/09/17 02:56:00;;;;;;;36.40;17.92;;;;;;;7.10;100.00;100545.75;1688857;83;21091;-74
2021/09/17 02:58:26;;;;;;;33.92;17.32;;;;;;;7.05;100.00;100548.81;1671811;83;21244;-74
2021/09/17 03:00:53;;;;;;;36.10;17.87;;;;;;;7.05;100.00;100545.41;1712993;78;21081;-76
2021/09/17 03:03:19;;;;;;;31.17;15.95;;;;;;;7.16;100.00;100540.42;1750487;80;21019;-75
2021/09/17 03:05:46;;;;;;;31.52;17.35;;;;;;;7.09;100.00;100538.14;1772407;80;21027;-73
2021/09/17 03:08:14;;;;;;;36.00;18.00;;;;;;;7.01;100.00;100533.72;1764943;79;20939;-75
2021/09/17 03:10:42;;;;;;;34.60;18.65;;;;;;;7.03;100.00;100533.88;1765549;80;21254;-75
2021/09/17 03:13:11;;;;;;;32.40;18.48;;;;;;;6.94;100.00;100537.39;1758548;80;21028;-75
2021/09/17 03:15:37;;;;;;;41.58;19.48;;;;;;;7.04;100.00;100534.69;1772327;80;21092;-74
2021/09/17 03:18:05;;;;;;;34.75;18.15;;;;;;;7.13;100.00;100532.48;1764160;80;20940;-75
2021/09/17 03:20:32;;;;;;;30.40;17.90;;;;;;;7.36;100.00;100527.58;1773175;79;21060;-74
2021/09/17 03:23:00;;;;;;;26.40;16.17;;;;;;;7.26;100.00;100524.28;1760869;79;20958;-75
2021/09/17 03:25:27;;;;;;;25.00;16.05;;;;;;;7.64;100.00;100529.45;1761037;80;21115;-75
2021/09/17 03:27:54;;;;;;;29.95;15.78;;;;;;;7.93;100.00;100525.66;1775009;80;21532;-76
2021/09/17 03:30:20;;;;;;;28.17;15.53;;;;;;;8.45;100.00;100531.44;1773236;80;21017;-76
2021/09/17 03:32:47;;;;;;;28.65;17.15;;;;;;;8.92;100.00;100529.44;1780927;79;21542;-76
2021/09/17 03:35:14;;;;;;;33.33;17.80;;;;;;;9.40;100.00;100527.69;1774627;79;21123;-73
2021/09/17 03:37:40;;;;;;;32.23;16.15;;;;;;;10.11;100.00;100513.30;1774048;80;21030;-73
2021/09/17 03:40:09;;;;;;;24.32;16.30;;;;;;;10.88;100.00;100514.00;1769829;80;20982;-72
2021/09/17 03:42:36;;;;;;;26.65;16.23;;;;;;;11.59;100.00;100511.72;1769620;80;21533;-72
2021/09/17 03:45:04;;;;;;;37.15;19.05;;;;;;;12.54;100.00;100503.29;1763664;80;21050;-74
2021/09/17 03:47:31;;;;;;;33.23;19.57;;;;;;;13.26;100.00;100499.53;1766647;80;22005;-72
2021/09/17 03:49:57;;;;;;;29.13;18.67;;;;;;;14.04;100.00;100492.13;1765374;80;21149;-73
2021/09/17 03:52:24;;;;;;;36.20;18.77;;;;;;;14.55;100.00;100491.07;1763586;80;21108;-73
2021/09/17 03:54:50;;;;;;;31.53;17.70;;;;;;;14.96;100.00;100497.05;1761640;79;21720;-73
2021/09/17 03:57:19;;;;;;;36.47;20.50;;;;;;;15.48;100.00;100496.06;1764119;80;21793;-75
2021/09/17 03:59:45;;;;;;;38.87;20.17;;;;;;;16.10;100.00;100490.27;1775811;78;21631;-73
2021/09/17 04:02:12;;;;;;;28.80;19.20;;;;;;;16.74;100.00;100491.30;1744589;80;22181;-69
2021/09/17 04:04:40;;;;;;;32.50;20.07;;;;;;;17.40;100.00;100486.30;1748997;80;21119;-75
2021/09/17 04:07:07;;;;;;;31.60;20.43;;;;;;;17.85;89.49;100480.66;1715451;81;21004;-74
2021/09/17 04:09:34;;;;;;;37.07;20.77;;;;;;;18.33;79.44;100477.05;1689604;82;20955;-71
2021/09/17 04:12:03;;;;;;;34.73;19.60;;;;;;;19.06;70.19;100487.67;1718393;82;21040;-68
2021/09/17 04:14:31;;;;;;;32.03;19.17;;;;;;;19.47;63.84;100480.00;1714734;82;21569;-71
2021/09/17 04:16:57;;;;;;;26.50;17.97;;;;;;;19.93;60.35;100475.57;1732075;81;21034;-73
2021/09/17 04:19:25;;;;;;;26.97;17.93;;;;;;;20.45;57.13;100473.98;1707410;82;20956;-71
2021/09/17 04:21:53;;;;;;;24.00;15.70;;;;;;;21.39;52.65;100469.12;1703615;82;21056;-73
2021/09/17 04:24:21;;;;;;;26.50;16.20;;;;;;;22.02;49.48;100467.59;1721450;81;20946;-71
2021/09/17 04:26:48;;;;;;;26.60;16.17;;;;;;;22.69;46.47;100461.39;1728712;81;21074;-70
2021/09/17 04:29:14;;;;;;;25.30;17.20;;;;;;;23.29;43.97;100466.17;1713766;82;21949;-73
2021/09/17 04:31:42;;;;;;;28.27;17.73;;;;;;;23.71;42.20;100461.21;1731639;81;21187;-70
2021/09/17 04:34:09;;;;;;;32.63;18.97;;;;;;;24.41;40.50;100460.14;1702235;82;21098;-69
2021/09/17 04:36:35;;;;;;;26.53;17.73;;;;;;;24.98;38.55;100455.42;1709183;83;22988;-68
2021/09/17 04:39:02;;;;;;;29.43;16.70;;;;;;;25.20;37.57;100459.08;1728633;82;20981;-68
2021/09/17 04:41:29;;;;;;;26.23;17.37;;;;;;;25.58;36.67;100463.39;1727118;82;20921;-69
2021/09/17 04:43:55;;;;;;;28.30;17.62;;;;;;;25.73;36.05;100460.60;1718447;82;20945;-68
2021/09/17 04:46:21;;;;;;;27.67;17.82;;;;;;;26.05;34.84;100460.08;1726576;82;20977;-68
2021/09/17 04:48:48;;;;;;;24.30;16.95;;;;;;;26.30;33.86;100461.73;1731722;81;21094;-71
2021/09/17 04:51:15;;;;;;;29.98;18.55;;;;;;;26.33;33.69;100455.00;1696436;82;21208;-69
2021/09/17 04:53:43;;;;;;;26.37;16.82;;;;;;;26.57;33.27;100457.73;1706395;83;21026;-67
2021/09/17 04:56:09;;;;;;;29.55;18.92;;;;;;;26.67;32.66;100456.29;1704046;83;21107;-68
2021/09/17 04:58:37;;;;;;;23.75;14.55;;;;;;;26.85;32.28;100448.83;1699594;82;21069;-69
2021/09/17 05:01:03;;;;;;;25.17;16.25;;;;;;;26.82;31.93;100453.95;1703475;82;22486;-69
2021/09/17 05:03:30;;;;;;;23.95;15.50;;;;;;;26.47;32.16;100444.47;1720998;82;20976;-68
2021/09/17 05:05:56;;;;;;;26.20;16.95;;;;;;;26.08;32.34;100448.05;1715611;82;20980;-68
2021/09/17 05:08:23;;;;;;;29.23;16.67;;;;;;;25.29;32.91;100450.75;1714715;82;20976;-68
2021/09/17 05:10:50;;;;;;;28.38;17.35;;;;;;;24.40;34.08;100448.44;1713284;81;20921;-73
2021/09/17 05:13:16;;;;;;;30.13;18.20;;;;;;;23.52;35.45;100458.27;1720390;81;22451;-70
2021/09/17 05:15:45;;;;;;;37.70;22.10;;;;;;;22.57;36.76;100463.72;1719309;83;21591;-73
2021/09/17 05:18:12;;;;;;;31.97;18.83;;;;;;;21.76;38.18;100460.47;1737890;80;21082;-68
2021/09/17 05:20:39;;;;;;;28.00;18.03;;;;;;;20.97;40.06;100464.37;1740801;81;21014;-75
2021/09/17 05:23:07;;;;;;;24.67;15.60;;;;;;;20.55;41.07;100464.89;1733648;81;21107;-69
2021/09/17 05:25:34;;;;;;;25.90;13.87;;;;;;;20.14;41.85;100464.78;1716564;83;22805;-76
2021/09/17 05:28:03;;;;;;;21.37;11.57;;;;;;;19.75;43.39;100469.97;1723227;82;20892;-69
2021/09/17 05:30:30;;;;;;;21.13;11.40;;;;;;;19.57;44.65;100472.26;1720067;82;21094;-68
2021/09/17 05:32:58;;;;;;;20.57;11.30;;;;;;;19.52;44.66;100473.50;1722153;82;20940;-68
2021/09/17 05:35:25;;;;;;;23.67;10.83;;;;;;;19.25;44.87;100479.06;1726872;82;20936;-69
2021/09/17 05:37:52;;;;;;;17.67;10.60;;;;;;;19.06;45.19;100476.59;1727283;82;21149;-75
2021/09/17 05:40:18;;;;;;;17.87;10.90;;;;;;;18.98;45.39;100478.27;1721713;82;21078;-68
2021/09/17 05:42:45;;;;;;;20.43;11.17;;;;;;;18.79;46.10;100478.94;1719392;82;20937;-71
2021/09/17 05:45:12;;;;;;;18.23;10.70;;;;;;;18.84;45.85;100477.71;1726965;82;21060;-71
2021/09/17 05:47:41;;;;;;;21.10;11.17;;;;;;;18.79;46.00;100478.94;1723437;82;20966;-71
2021/09/17 05:50:09;;;;;;;20.17;10.33;;;;;;;18.95;46.72;100484.02;1700250;82;21120;-70
2021/09/17 05:52:35;;;;;;;20.80;11.43;;;;;;;19.02;46.52;100479.93;1715723;83;21065;-67
2021/09/17 05:55:03;;;;;;;26.60;12.30;;;;;;;19.32;46.16;100484.99;1744121;81;20926;-70
2021/09/17 05:57:30;;;;;;;23.87;11.83;;;;;;;19.64;45.73;100477.44;1751093;80;21059;-68
2021/09/17 05:59:57;;;;;;;25.60;11.57;;;;;;;19.56;46.46;100473.83;1752209;81;20847;-69
2021/09/17 06:02:23;;;;;;;20.97;10.13;;;;;;;19.83;46.16;100474.86;1764357;79;21744;-69
2021/09/17 06:04:51;;;;;;;19.63;10.27;;;;;;;20.11;45.07;100465.25;1781735;79;21569;-71
2021/09/17 06:07:19;;;;;;;19.27;9.90;;;;;;;20.68;43.38;100473.00;1780884;78;20953;-70
2021/09/17 06:09:45;;;;;;;15.27;6.93;;;;;;;20.95;42.09;100467.81;1782096;79;21044;-66
2021/09/17 06:12:12;;;;;;;15.67;6.83;;;;;;;21.55;39.88;100466.09;1780965;79;20980;-74
2021/09/17 06:14:38;;;;;;;12.20;6.40;;;;;;;22.01;39.38;100462.52;1755248;80;21178;-70
2021/09/17 06:17:06;;;;;;;16.07;7.13;;;;;;;23.17;36.74;100464.28;1768713;79;21032;-70
2021/09/17 06:19:33;;;;;;;17.00;8.57;;;;;;;23.74;35.64;100455.91;1780349;78;20901;-70
2021/09/17 06:21:59;;;;;;;20.10;8.97;;;;;;;23.89;34.61;100459.90;1770213;80;21479;-75
2021/09/17 06:24:27;;;;;;;16.00;9.43;;;;;;;24.09;35.13;100459.62;1759055;80;20854;-73
2021/09/17 06:26:54;;;;;;;23.87;11.00;;;;;;;25.02;34.55;100449.01;1780561;79;22297;-70
2021/09/17 06:29:21;;;;;;;19.73;10.10;;;;;;;25.60;33.58;100456.67;1767940;79;21084;-73
2021/09/17 06:31:49;;;;;;;18.95;9.80;;;;;;;26.35;32.03;100445.62;1745445;79;20978;-73
2021/09/17 06:34:16;;;;;;;23.40;11.05;;;;;;;26.94;31.33;100440.97;1749034;79;20994;-76
2021/09/17 06:36:42;;;;;;;23.45;9.53;;;;;;;27.48;30.15;100445.05;1747443;81;21102;-72
2021/09/17 06:39:09;;;;;;;15.15;9.33;;;;;;;27.61;28.97;100442.16;1746226;79;21108;-68
2021/09/17 06:41:35;;;;;;;16.75;9.28;;;;;;;27.74;28.54;100437.95;1745434;81;20872;-69
2021/09/17 06:44:04;;;;;;;16.42;10.08;;;;;;;28.38;27.49;100436.89;1746411;79;21043;-70
2021/09/17 06:46:32;;;;;;;19.12;9.80;;;;;;;28.38;27.49;100436.89;1745824;80;21549;-70
2021/09/17 06:48:59;;;;;;;17.05;9.85;;;;;;;28.81;26.91;100431.98;1748662;79;21452;-72
2021/09/17 06:51:27;;;;;;;19.65;10.13;;;;;;;29.01;25.94;100431.56;1780680;78;20985;-70
2021/09/17 06:53:54;;;;;;;21.45;10.63;;;;;;;29.11;25.90;100427.88;1769106;80;21455;-70
2021/09/17 06:56:22;;;;;;;21.27;9.70;;;;;;;29.15;25.42;100426.16;1746467;80;20952;-72
2021/09/17 06:58:49;;;;;;;21.17;11.10;;;;;;;29.21;24.93;100432.20;1769320;80;21027;-78
2021/09/17 07:01:15;;;;;;;20.95;13.00;;;;;;;29.32;24.95;100424.16;1758039;80;20995;-71
2021/09/17 07:03:42;;;;;;;17.92;12.00;;;;;;;29.60;24.23;100426.77;1744592;79;22139;-75
2021/09/17 07:06:08;;;;;;;21.20;15.13;;;;;;;29.73;24.11;100419.17;1722821;80;21564;-73
2021/09/17 07:08:37;;;;;;;27.20;20.02;;;;;;;30.26;24.21;100417.00;1729306;81;21049;-73
2021/09/17 07:11:06;;;;;;;23.40;16.37;;;;;;;30.54;24.01;100414.89;1732963;81;20944;-73
2021/09/17 07:13:34;;;;;;;24.67;13.85;;;;;;;30.92;23.98;100413.00;1740511;80;21051;-73
2021/09/17 07:16:01;;;;;;;14.78;7.78;;;;;;;31.53;23.71;100412.44;1732768;80;21303;-74
2021/09/17 07:18:29;;;;;;;12.85;7.92;;;;;;;32.08;21.66;100412.22;1747946;80;21130;-72
2021/09/17 07:20:57;;;;;;;11.93;7.17;;;;;;;31.80;21.88;100412.61;1738527;81;21129;-76
2021/09/17 07:23:25;;;;;;;13.98;7.00;;;;;;;31.82;22.31;100414.41;1754325;80;20939;-75
2021/09/17 07:25:52;;;;;;;11.28;6.72;;;;;;;31.61;21.71;100417.02;1744738;81;21071;-76
2021/09/17 07:28:20;;;;;;;11.05;7.08;;;;;;;31.52;21.99;100414.91;1749737;79;20871;-75
2021/09/17 07:30:49;;;;;;;10.80;6.12;;;;;;;31.24;21.59;100407.69;1732364;81;20934;-70
2021/09/17 07:33:15;;;;;;;11.18;6.33;;;;;;;31.07;21.72;100407.15;1742697;80;22299;-72
2021/09/17 07:35:41;;;;;;;13.48;7.35;;;;;;;31.11;22.29;100405.41;1726562;81;21162;-73
2021/09/17 07:38:08;;;;;;;11.33;7.17;;;;;;;31.40;22.26;100401.27;1733517;81;21111;-73
2021/09/17 07:40:36;;;;;;;13.60;6.00;;;;;;;31.43;21.66;100400.64;1719670;80;21148;-73
2021/09/17 07:43:02;;;;;;;11.85;6.65;;;;;;;31.11;22.21;100401.92;1730931;80;21009;-73
2021/09/17 07:45:29;;;;;;;10.55;6.05;;;;;;;31.06;22.40;100400.16;1730754;80;21091;-72
2021/09/17 07:47:55;;;;;;;9.73;5.65;;;;;;;30.62;22.61;100400.66;1739151;81;21093;-69
2021/09/17 07:50:22;;;;;;;7.85;5.30;;;;;;;30.30;22.73;100397.23;1728726;80;21105;-74
2021/09/17 07:52:49;;;;;;;9.35;4.50;;;;;;;29.97;22.29;100400.03;1724269;80;21122;-73
2021/09/17 07:55:16;;;;;;;8.33;4.62;;;;;;;30.04;22.52;100396.33;1729868;80;22079;-71
2021/09/17 07:57:43;;;;;;;5.60;2.90;;;;;;;30.19;22.45;100395.97;1731517;80;21133;-69
2021/09/17 08:00:12;;;;;;;8.10;4.28;;;;;;;30.06;21.72;100396.27;1736305;81;20921;-70
2021/09/17 08:02:40;;;;;;;6.12;3.08;;;;;;;30.07;22.62;100391.67;1739735;79;21573;-68
2021/09/17 08:05:07;;;;;;;7.08;3.08;;;;;;;30.30;22.10;100391.07;1756078;80;21109;-70
2021/09/17 08:07:36;;;;;;;5.37;3.00;;;;;;;30.21;21.60;100387.58;1734704;80;20999;-69
2021/09/17 08:10:03;;;;;;;5.42;2.60;;;;;;;30.01;21.77;100388.34;1729825;80;21529;-68
2021/09/17 08:12:31;;;;;;;3.08;1.87;;;;;;;29.97;21.45;100381.22;1764523;80;20941;-69
2021/09/17 08:14:58;;;;;;;6.60;2.70;;;;;;;29.73;20.93;100380.22;1769557;80;20884;-69
2021/09/17 08:17:25;;;;;;;4.28;2.42;;;;;;;29.42;21.72;100384.20;1718626;82;21136;-76
2021/09/17 08:19:53;;;;;;;4.00;2.35;;;;;;;29.05;22.10;100388.81;1735711;82;21074;-71
2021/09/17 08:22:20;;;;;;;4.35;2.67;;;;;;;29.01;22.09;100380.57;1762365;80;20933;-70
2021/09/17 08:24:47;;;;;;;5.20;2.58;;;;;;;29.16;22.11;100378.09;1770169;80;20890;-69
2021/09/17 08:27:14;;;;;;;4.85;2.50;;;;;;;29.45;22.06;100374.19;1769117;80;21001;-69
2021/09/17 08:29:41;;;;;;;5.10;2.58;;;;;;;29.93;21.79;100364.10;1758595;79;21819;-73
2021/09/17 08:32:08;;;;;;;4.40;2.47;;;;;;;29.94;21.29;100364.36;1770342;80;21524;-70
2021/09/17 08:34:35;;;;;;;5.03;2.35;;;;;;;29.88;21.04;100362.91;1764763;79;21460;-69
2021/09/17 08:37:07;;;;;;;5.22;2.60;;;;;;;29.48;21.66;100355.57;1740557;81;20980;-68
2021/09/17 08:39:35;;;;;;;3.95;2.05;;;;;;;28.98;22.25;100355.70;1748195;81;21017;-74
2021/09/17 08:42:03;;;;;;;4.62;2.40;;;;;;;29.10;21.97;100353.82;1762306;80;21150;-68
2021/09/17 08:44:30;;;;;;;4.05;2.00;;;;;;;29.33;21.80;100352.71;1759145;80;20990;-69
2021/09/17 08:46:58;;;;;;;4.03;2.42;;;;;;;29.67;21.46;100343.86;1767497;80;20985;-69
2021/09/17 08:49:25;;;;;;;5.40;2.22;;;;;;;29.86;21.53;100343.06;1747183;80;21560;-70
2021/09/17 08:51:53;;;;;;;4.58;2.37;;;;;;;30.11;21.48;100342.91;1731616;80;20995;-73
2021/09/17 08:54:21;;;;;;;4.97;2.52;;;;;;;30.14;20.76;100339.59;1735419;80;21456;-65
2021/09/17 08:56:47;;;;;;;5.15;2.85;;;;;;;30.17;20.79;100340.36;1739173;80;20851;-67
2021/09/17 08:59:15;;;;;;;7.03;2.60;;;;;;;30.24;21.18;100335.31;1731993;81;21046;-66
2021/09/17 09:01:43;;;;;;;3.92;2.12;;;;;;;30.32;21.21;100338.34;1750884;80;21679;-68
2021/09/17 09:04:10;;;;;;;5.35;2.60;;;;;;;30.23;21.15;100336.42;1747476;80;21125;-67
2021/09/17 09:06:42;;;;;;;5.47;2.27;;;;;;;30.00;21.06;100334.88;1730473;81;22236;-66
2021/09/17 09:09:19;;;;;;;7.40;2.30;;;;;;;29.91;21.37;100338.10;1736258;80;20991;-70
2021/09/17 09:11:49;;;;;;;6.85;2.35;;;;;;;30.13;21.13;100332.64;1741275;80;21005;-71
2021/09/17 09:14:17;;;;;;;4.87;2.80;;;;;;;30.20;21.00;100328.98;1741880;81;21006;-67
2021/09/17 09:16:47;;;;;;;13.62;3.05;;;;;;;30.36;20.83;100325.84;1739465;80;21065;-65
2021/09/17 09:19:35;;;;;;;5.62;2.20;;;;;;;30.57;20.88;100328.16;1740214;80;21119;-67
2021/09/17 09:22:09;;;;;;;21.30;4.20;;;;;;;31.33;20.28;100322.32;1739244;80;21128;-67
2021/09/17 09:24:42;;;;;;;6.65;3.02;;;;;;;31.84;20.08;100316.50;1737632;79;21117;-67
2021/09/17 09:27:18;;;;;;;16.35;3.27;;;;;;;32.39;19.21;100302.64;1739433;80;21296;-72
2021/09/17 09:29:47;;;;;;;8.58;2.70;;;;;;;32.43;19.33;100304.41;1745675;80;21098;-65
2021/09/17 09:32:28;;;;;;;4.00;2.62;;;;;;;32.31;18.92;100300.80;1753990;79;21153;-73
2021/09/17 09:34:57;;;;;;;6.45;3.08;;;;;;;32.04;19.38;100305.56;1731153;80;21334;-68
2021/09/17 09:37:35;;;;;;;5.10;2.65;;;;;;;31.83;19.55;100310.88;1779552;78;20956;-67
2021/09/17 09:40:06;;;;;;;4.08;2.62;;;;;;;31.96;19.81;100304.48;1763130;78;20987;-67
2021/09/17 09:42:38;;;;;;;6.43;2.80;;;;;;;32.05;19.44;100299.61;1752041;80;21586;-70
2021/09/17 09:45:22;;;;;;;3.87;2.33;;;;;;;32.23;19.28;100295.13;1732151;79;21874;-65
2021/09/17 09:47:57;;;;;;;6.42;3.02;;;;;;;32.11;19.33;100295.05;1758655;79;21042;-68
2021/09/17 09:50:26;;;;;;;6.65;2.90;;;;;;;32.14;18.83;100289.01;1759033;79;21098;-70
2021/09/17 09:52:58;;;;;;;4.67;2.87;;;;;;;31.97;19.07;100290.45;1738394;79;22072;-66
2021/09/17 09:55:25;;;;;;;5.42;2.70;;;;;;;31.89;19.14;100290.73;1765248;80;21442;-67
2021/09/17 09:57:51;;;;;;;6.25;2.67;;;;;;;32.03;18.99;100285.11;1742080;81;21079;-67
2021/09/17 10:00:19;;;;;;;8.38;4.08;;;;;;;32.05;18.81;100282.08;1764926;80;20994;-71
2021/09/17 10:02:45;;;;;;;7.85;3.45;;;;;;;32.07;18.82;100279.30;1765060;80;20909;-66
2021/09/17 10:05:15;;;;;;;7.42;3.30;;;;;;;31.98;19.11;100280.70;1754606;79;21001;-70
2021/09/17 10:07:42;;;;;;;7.12;3.83;;;;;;;31.93;19.12;100284.92;1755453;80;21083;-67
2021/09/17 10:10:12;;;;;;;7.80;3.37;;;;;;;31.71;19.40;100279.80;1758402;79;21116;-67
2021/09/17 10:12:39;;;;;;;5.42;2.92;;;;;;;31.45;19.41;100271.81;1748454;80;21118;-68
2021/09/17 10:15:09;;;;;;;5.90;3.27;;;;;;;31.38;19.89;100272.30;1758608;79;21035;-68
2021/09/17 10:17:38;;;;;;;11.25;3.92;;;;;;;31.15;19.97;100274.41;1756994;80;21391;-66
2021/09/17 10:20:08;;;;;;;9.45;3.77;;;;;;;30.81;19.70;100265.05;1759272;81;21102;-65
2021/09/17 10:22:45;;;;;;;9.83;4.50;;;;;;;30.46;20.09;100269.07;1751896;79;21112;-66
2021/09/17 10:25:22;;;;;;;6.10;3.05;;;;;;;30.17;20.47;100266.97;1752606;81;20996;-65
2021/09/17 10:28:11;;;;;;;5.65;3.22;;;;;;;29.83;20.40;100264.97;1758561;79;21033;-67
2021/09/17 10:30:41;;;;;;;26.87;6.45;;;;;;;29.86;20.37;100258.97;1747561;79;20935;-71
2021/09/17 10:33:29;;;;;;;4.55;2.83;;;;;;;29.83;20.43;100259.04;1760735;79;21447;-67
2021/09/17 10:35:56;;;;;;;8.18;2.92;;;;;;;29.98;20.01;100251.88;1765931;79;21294;-65
2021/09/17 10:38:30;;;;;;;5.70;3.05;;;;;;;30.12;20.53;100250.94;1765562;80;20948;-69
2021/09/17 10:41:04;;;;;;;7.15;3.17;;;;;;;30.18;20.36;100245.14;1760598;80;21497;-64
2021/09/17 10:43:43;;;;;;;6.58;3.22;;;;;;;30.47;20.12;100247.22;1764205;80;21006;-65
2021/09/17 10:46:28;;;;;;;8.48;2.90;;;;;;;30.59;20.19;100243.89;1773235;79;21079;-65
2021/09/17 10:48:57;;;;;;;8.73;2.75;;;;;;;30.74;19.75;100242.09;1769598;79;22076;-63
2021/09/17 10:51:39;;;;;;;5.92;3.02;;;;;;;30.73;19.59;100239.70;1773494;79;21096;-63
2021/09/17 10:54:11;;;;;;;7.67;3.00;;;;;;;30.68;20.04;100239.28;1773400;79;21083;-63
2021/09/17 10:57:01;;;;;;;8.23;3.67;;;;;;;30.55;19.79;100226.80;1744453;80;21546;-62
2021/09/17 10:59:42;;;;;;;7.50;3.55;;;;;;;30.46;20.19;100225.48;1763429;81;21118;-63
2021/09/17 11:02:11;;;;;;;6.20;3.35;;;;;;;30.65;19.84;100223.80;1739267;80;21214;-62
2021/09/17 11:04:45;;;;;;;7.05;3.67;;;;;;;30.25;20.27;100227.20;1747519;79;20937;-67
2021/09/17 11:07:25;;;;;;;7.25;3.05;;;;;;;29.83;20.48;100222.77;1760732;79;21968;-61
2021/09/17 11:09:58;;;;;;;8.03;2.80;;;;;;;29.53;20.63;100217.66;1763568;79;20886;-63
2021/09/17 11:12:31;;;;;;;7.37;3.30;;;;;;;29.73;20.97;100209.61;1762831;79;20996;-64
2021/09/17 11:15:08;;;;;;;15.23;3.62;;;;;;;29.86;20.90;100214.64;1755237;79;22240;-63
2021/09/17 11:17:47;;;;;;;7.72;3.50;;;;;;;30.04;20.86;100214.35;1747655;79;21647;-62
2021/09/17 11:20:17;;;;;;;7.42;3.00;;;;;;;30.52;20.36;100207.27;1753652;79;21557;-68